Open Full Screen Window  High Contrast Mode
January 26, 2015 8:00 PM EST
Weather Information
Wind Direction
  ---
Wind Speed
  00 kt (0 mph)
Wind Gust
  00 kt (0 mph)
Altimeter
30.00 in
Visibility
10 SM
Temperature
-08° C
18° F
Dewpoint
-11° C
12° F
Humidity
79%
1hr Rain Fall
00.00 in.
24hr Rain Fall
00.00 in.
Sky Condition
Clear
VFR

METAR KIKW 270100Z AUTO 00000KT 10SM CLR M08/M11 A3000 RMK AO2 T10811115

*Background is not an actual portrayal of the airport.